Machagai, Argentina
Current Conditions -  °F | °C
As of 12:00 AM on Sunday 26 Oct 2014 (Local Time) from SARE Reporting Station
Clear Clear  
Wind Chill: 25°   Ceiling: Unl
Heat Index: 26°   Visibility: 6mi
Dew Point: 18°   Wind: 5mph
Humidity: 65%   Direction: 140°SE
Pressure: 29.8"   Gusts: NA
Location:  26.93°S, 60.05°W
Report Text: SARE 260300Z 14004KT CAVOK 25/18 Q1009
Loading
Personal Weather Stations






























Interactive Weather Map
Tropical Storm Tracking
New forecast layout! Learn more

10-Day Weather Forecast

Advertisements
Track Severe Weather on mobile